createdAt,value
2023-01-23T00:01:32.751Z,99299.00
2023-01-23T00:04:00.986Z,99306.84
2023-01-23T00:06:29.146Z,99307.69
2023-01-23T00:08:57.310Z,99312.19
2023-01-23T00:11:27.692Z,99305.19
2023-01-23T00:13:57.146Z,99307.91
2023-01-23T00:16:27.052Z,99310.44
2023-01-23T00:18:54.646Z,99323.53
2023-01-23T00:21:26.532Z,99323.97
2023-01-23T00:23:55.980Z,99323.38
2023-01-23T00:26:26.241Z,99326.00
2023-01-23T00:28:54.954Z,99330.41
2023-01-23T00:31:28.806Z,99332.06
2023-01-23T00:34:01.890Z,99324.31
2023-01-23T00:36:33.136Z,99325.03
2023-01-23T00:39:01.302Z,99318.75
2023-01-23T00:41:29.536Z,99327.06
2023-01-23T00:43:57.201Z,99321.59
2023-01-23T00:46:24.923Z,99323.16
2023-01-23T00:48:52.798Z,99326.97
2023-01-23T00:51:20.937Z,99327.22
2023-01-23T00:53:48.517Z,99324.47
2023-01-23T00:56:16.071Z,99337.41
2023-01-23T00:58:45.127Z,99342.78
2023-01-23T01:01:15.347Z,99348.50
2023-01-23T01:03:44.378Z,99342.31
2023-01-23T01:06:12.700Z,99343.03
2023-01-23T01:08:40.474Z,99338.75
2023-01-23T01:11:08.389Z,99344.09
2023-01-23T01:13:35.932Z,99343.13
2023-01-23T01:16:04.056Z,99350.41
2023-01-23T01:18:31.643Z,99344.69
2023-01-23T01:20:59.442Z,99347.78
2023-01-23T01:23:27.029Z,99354.22
2023-01-23T01:25:59.082Z,99355.75
2023-01-23T01:28:30.397Z,99366.84
2023-01-23T01:30:58.483Z,99369.22
2023-01-23T01:33:28.548Z,99365.66
2023-01-23T01:35:56.989Z,99371.38
2023-01-23T01:38:24.708Z,99375.66
2023-01-23T01:40:52.249Z,99375.41
2023-01-23T01:43:22.988Z,99371.94
2023-01-23T01:46:12.415Z,99378.25
2023-01-23T01:48:51.664Z,99381.94
2023-01-23T01:51:42.695Z,99381.59
2023-01-23T01:54:28.492Z,99378.50
2023-01-23T01:57:02.193Z,99393.97
2023-01-23T01:59:31.523Z,99388.16
2023-01-23T02:02:05.379Z,99390.91
2023-01-23T02:04:36.971Z,99392.66
2023-01-23T02:07:09.872Z,99396.72
2023-01-23T02:09:38.469Z,99400.19
2023-01-23T02:12:06.233Z,99403.06
2023-01-23T02:14:33.771Z,99406.72
2023-01-23T02:17:03.743Z,99411.50
2023-01-23T02:19:46.603Z,99414.72
2023-01-23T02:22:32.952Z,99422.06
2023-01-23T02:25:44.873Z,99422.06
2023-01-23T02:28:17.450Z,99411.16
2023-01-23T02:30:47.402Z,99414.84
2023-01-23T02:33:21.256Z,99417.22
2023-01-23T02:35:51.053Z,99407.81
2023-01-23T02:38:22.887Z,99398.53
2023-01-23T02:40:52.777Z,99408.38
2023-01-23T02:43:28.406Z,99406.34
2023-01-23T02:46:10.185Z,99416.50
2023-01-23T02:48:40.242Z,99413.88
2023-01-23T02:51:08.006Z,99424.47
2023-01-23T02:53:35.596Z,99422.56
2023-01-23T02:56:03.163Z,99423.03
2023-01-23T02:58:48.977Z,99419.25
2023-01-23T03:01:16.574Z,99413.03
2023-01-23T03:03:44.177Z,99408.63
2023-01-23T03:06:12.096Z,99398.63
2023-01-23T03:08:47.732Z,99401.03
2023-01-23T03:11:18.199Z,99403.16
2023-01-23T03:13:47.253Z,99392.91
2023-01-23T03:16:15.535Z,99391.84
2023-01-23T03:18:54.042Z,99396.34
2023-01-23T03:21:22.303Z,99403.75
2023-01-23T03:23:49.954Z,99404.31
2023-01-23T03:26:18.720Z,99409.72
2023-01-23T03:29:06.907Z,99409.94
2023-01-23T03:31:36.181Z,99412.31
2023-01-23T03:34:03.818Z,99408.97
2023-01-23T03:36:37.499Z,99407.56
2023-01-23T03:39:26.606Z,99411.84
2023-01-23T03:41:55.238Z,99419.34
2023-01-23T03:44:24.677Z,99421.16
2023-01-23T03:46:53.624Z,99425.53
2023-01-23T03:49:21.152Z,99429.59
2023-01-23T03:51:55.326Z,99434.94
2023-01-23T03:54:23.167Z,99439.50
2023-01-23T03:56:51.338Z,99436.63
2023-01-23T03:59:37.459Z,99443.53
2023-01-23T04:02:05.382Z,99438.53
2023-01-23T04:04:35.217Z,99436.97
2023-01-23T04:07:06.273Z,99443.75
2023-01-23T04:09:35.280Z,99450.78
2023-01-23T04:12:03.637Z,99445.19
2023-01-23T04:14:37.792Z,99451.38
2023-01-23T04:17:06.712Z,99453.41
2023-01-23T04:19:35.196Z,99454.25
2023-01-23T04:22:03.401Z,99450.66
2023-01-23T04:24:36.306Z,99449.00
2023-01-23T04:27:04.570Z,99450.06
2023-01-23T04:29:32.208Z,99448.28
2023-01-23T04:31:59.979Z,99446.03
2023-01-23T04:34:29.064Z,99447.59
2023-01-23T04:36:58.346Z,99443.19
2023-01-23T04:39:25.897Z,99458.91
2023-01-23T04:41:53.980Z,99459.50
2023-01-23T04:44:41.668Z,99456.38
2023-01-23T04:47:35.187Z,99455.31
2023-01-23T04:50:06.627Z,99452.59
2023-01-23T04:52:35.908Z,99452.59
2023-01-23T04:55:04.698Z,99454.59
2023-01-23T04:57:32.321Z,99459.13
2023-01-23T05:00:13.932Z,99455.91
2023-01-23T05:02:41.638Z,99461.84
2023-01-23T05:05:09.836Z,99460.91
2023-01-23T05:07:38.587Z,99465.44
2023-01-23T05:10:13.644Z,99466.03
2023-01-23T05:12:43.383Z,99478.16
2023-01-23T05:15:11.628Z,99475.09
2023-01-23T05:17:41.559Z,99481.88
2023-01-23T05:20:11.002Z,99475.78
2023-01-23T05:22:52.404Z,99481.16
2023-01-23T05:25:25.224Z,99492.22
2023-01-23T05:27:53.752Z,99483.03
2023-01-23T05:30:23.137Z,99483.19
2023-01-23T05:32:54.156Z,99485.31
2023-01-23T05:35:22.751Z,99481.50
2023-01-23T05:37:52.038Z,99480.31
2023-01-23T05:40:23.532Z,99482.94
2023-01-23T05:43:19.986Z,99476.25
2023-01-23T05:46:06.113Z,99476.38
2023-01-23T05:48:51.663Z,99479.50
2023-01-23T05:51:21.381Z,99487.13
2023-01-23T05:53:49.624Z,99480.91
2023-01-23T05:56:18.601Z,99481.97
2023-01-23T05:59:05.547Z,99489.34
2023-01-23T06:01:59.346Z,99497.09
2023-01-23T06:04:49.591Z,99500.28
2023-01-23T06:07:27.007Z,99496.50
2023-01-23T06:09:58.346Z,99497.56
2023-01-23T06:12:26.210Z,99493.66
2023-01-23T06:14:53.858Z,99493.41
2023-01-23T06:17:21.502Z,99498.53
2023-01-23T06:19:49.326Z,99499.25
2023-01-23T06:22:17.359Z,99509.13
2023-01-23T06:25:04.449Z,99514.50
2023-01-23T06:27:32.364Z,99514.88
2023-01-23T06:30:04.926Z,99516.16
2023-01-23T06:32:36.883Z,99516.50
2023-01-23T06:35:06.646Z,99522.09
2023-01-23T06:37:38.408Z,99522.94
2023-01-23T06:40:07.332Z,99524.59
2023-01-23T06:42:35.837Z,99534.00
2023-01-23T06:45:03.433Z,99534.00
2023-01-23T06:47:32.290Z,99538.41
2023-01-23T06:50:02.410Z,99542.81
2023-01-23T06:52:33.675Z,99552.34
2023-01-23T06:55:01.174Z,99551.28
2023-01-23T06:57:29.025Z,99562.59
2023-01-23T06:59:57.715Z,99561.41
2023-01-23T07:02:25.508Z,99562.88
2023-01-23T07:04:53.583Z,99569.53
2023-01-23T07:07:21.295Z,99581.69
2023-01-23T07:09:50.650Z,99578.25
2023-01-23T07:12:20.827Z,99577.44
2023-01-23T07:14:48.363Z,99588.50
2023-01-23T07:17:20.916Z,99591.72
2023-01-23T07:19:48.435Z,99594.56
2023-01-23T07:22:20.099Z,99599.50
2023-01-23T07:24:48.052Z,99599.94
2023-01-23T07:27:16.055Z,99599.81
2023-01-23T07:29:44.908Z,99602.44
2023-01-23T07:32:12.365Z,99607.09
2023-01-23T07:34:39.906Z,99612.88
2023-01-23T07:37:07.593Z,99615.50
2023-01-23T07:39:35.167Z,99611.31
2023-01-23T07:42:02.728Z,99616.72
2023-01-23T07:44:30.318Z,99613.88
2023-01-23T07:46:57.875Z,99616.75
2023-01-23T07:49:25.487Z,99618.56
2023-01-23T07:51:53.076Z,99619.53
2023-01-23T07:54:20.698Z,99625.84
2023-01-23T07:56:51.337Z,99630.13
2023-01-23T07:59:18.804Z,99625.13
2023-01-23T08:01:46.386Z,99626.06
2023-01-23T08:04:14.051Z,99624.28
2023-01-23T08:06:41.552Z,99626.06
2023-01-23T08:09:09.088Z,99634.75
2023-01-23T08:11:36.711Z,99633.19
2023-01-23T08:14:04.317Z,99629.38
2023-01-23T08:16:31.959Z,99625.94
2023-01-23T08:18:59.603Z,99629.78
2023-01-23T08:21:27.160Z,99621.19
2023-01-23T08:23:54.747Z,99625.97
2023-01-23T08:26:22.308Z,99628.44
2023-01-23T08:28:49.927Z,99631.53
2023-01-23T08:31:17.561Z,99632.72
2023-01-23T08:33:45.293Z,99628.09
2023-01-23T08:36:14.115Z,99632.41
2023-01-23T08:38:41.749Z,99630.72
2023-01-23T08:41:12.017Z,99633.09
2023-01-23T08:43:41.813Z,99633.00
2023-01-23T08:46:10.530Z,99639.81
2023-01-23T08:48:38.077Z,99635.63
2023-01-23T08:51:12.954Z,99630.38
2023-01-23T08:53:41.727Z,99643.41
2023-01-23T08:56:17.026Z,99638.25
2023-01-23T08:58:46.283Z,99635.03
2023-01-23T09:01:16.757Z,99633.63
2023-01-23T09:03:44.627Z,99642.69
2023-01-23T09:06:13.487Z,99651.25
2023-01-23T09:08:41.032Z,99659.75
2023-01-23T09:11:10.685Z,99663.66
2023-01-23T09:13:38.895Z,99665.22
2023-01-23T09:16:08.649Z,99665.47
2023-01-23T09:18:36.741Z,99672.22
2023-01-23T09:21:10.352Z,99671.41
2023-01-23T09:23:38.197Z,99671.16
2023-01-23T09:26:11.319Z,99660.19
2023-01-23T09:28:42.086Z,99657.78
2023-01-23T09:31:13.857Z,99664.13
2023-01-23T09:33:42.100Z,99666.84
2023-01-23T09:36:10.461Z,99670.09
2023-01-23T09:38:38.207Z,99666.97
2023-01-23T09:41:19.452Z,99665.94
2023-01-23T09:44:07.584Z,99666.75
2023-01-23T09:46:54.199Z,99662.09
2023-01-23T09:49:21.645Z,99663.75
2023-01-23T09:52:02.749Z,99654.69
2023-01-23T09:54:34.047Z,99649.00
2023-01-23T09:57:06.450Z,99643.97
2023-01-23T09:59:50.270Z,99656.50
2023-01-23T10:02:27.190Z,99648.03
2023-01-23T10:04:56.837Z,99653.91
2023-01-23T10:07:38.631Z,99647.81
2023-01-23T10:10:25.269Z,99646.88
2023-01-23T10:13:09.365Z,99655.69
2023-01-23T10:15:45.754Z,99649.38
2023-01-23T10:18:22.576Z,99651.88
2023-01-23T10:21:02.149Z,99645.44
2023-01-23T10:23:51.753Z,99635.66
2023-01-23T10:26:22.594Z,99632.81
2023-01-23T10:28:53.877Z,99633.41
2023-01-23T10:31:58.791Z,99638.53
2023-01-23T10:34:49.078Z,99643.28
2023-01-23T10:37:40.627Z,99641.16
2023-01-23T10:40:15.066Z,99642.94
2023-01-23T10:42:43.449Z,99635.03
2023-01-23T10:45:19.465Z,99636.59
2023-01-23T10:47:54.574Z,99632.13
2023-01-23T10:50:36.778Z,99630.78
2023-01-23T10:54:16.892Z,99625.69
2023-01-23T10:57:01.454Z,99619.53
2023-01-23T10:59:34.661Z,99613.81
2023-01-23T11:02:14.441Z,99623.25
2023-01-23T11:04:43.993Z,99625.16
2023-01-23T11:07:26.365Z,99626.22
2023-01-23T11:09:56.106Z,99624.69
2023-01-23T11:12:35.561Z,99627.06
2023-01-23T11:15:23.377Z,99623.88
2023-01-23T11:17:52.978Z,99619.91
2023-01-23T11:20:35.199Z,99607.16
2023-01-23T11:23:13.128Z,99618.94
2023-01-23T11:25:52.229Z,99606.31
2023-01-23T11:28:30.901Z,99607.25
2023-01-23T11:31:15.695Z,99611.69
2023-01-23T11:34:05.509Z,99617.03
2023-01-23T11:37:05.121Z,99607.75
2023-01-23T11:39:53.021Z,99606.09
2023-01-23T11:42:20.937Z,99606.91
2023-01-23T11:44:49.900Z,99603.94
2023-01-23T11:47:42.175Z,99613.94
2023-01-23T11:50:26.188Z,99616.94
2023-01-23T11:53:01.619Z,99611.94
2023-01-23T11:55:52.070Z,99605.34
2023-01-23T11:58:50.322Z,99612.06
2023-01-23T12:02:05.572Z,99592.47
2023-01-23T12:05:00.225Z,99608.13
2023-01-23T12:07:27.996Z,99597.50
2023-01-23T12:10:37.493Z,99597.03
2023-01-23T12:13:35.737Z,99602.59
2023-01-23T12:16:18.456Z,99595.69
2023-01-23T12:19:10.771Z,99597.59
2023-01-23T12:21:47.379Z,99591.28
2023-01-23T12:24:50.256Z,99588.31
2023-01-23T12:27:45.945Z,99595.69
2023-01-23T12:30:31.678Z,99597.00
2023-01-23T12:33:49.951Z,99588.69
2023-01-23T12:36:32.221Z,99595.09
2023-01-23T12:39:24.510Z,99587.25
2023-01-23T12:42:04.135Z,99587.25
2023-01-23T12:44:37.883Z,99583.91
2023-01-23T12:47:14.261Z,99595.84
2023-01-23T12:50:08.284Z,99589.63
2023-01-23T12:52:48.160Z,99587.47
2023-01-23T12:55:26.746Z,99595.34
2023-01-23T12:58:08.366Z,99593.78
2023-01-23T13:00:55.140Z,99592.94
2023-01-23T13:03:37.288Z,99593.69
2023-01-23T13:06:29.591Z,99584.00
2023-01-23T13:09:17.346Z,99590.59
2023-01-23T13:12:22.186Z,99599.25
2023-01-23T13:15:12.486Z,99600.09
2023-01-23T13:17:59.947Z,99598.09
2023-01-23T13:21:11.385Z,99600.09
2023-01-23T13:23:40.076Z,99610.50
2023-01-23T13:26:16.864Z,99604.53
2023-01-23T13:28:46.253Z,99604.03
2023-01-23T13:31:26.379Z,99610.56
2023-01-23T13:34:06.622Z,99607.47
2023-01-23T13:36:37.990Z,99614.13
2023-01-23T13:39:17.256Z,99613.66
2023-01-23T13:41:46.511Z,99599.72
2023-01-23T13:44:35.848Z,99612.50
2023-01-23T14:24:55.175Z,99626.03
2023-01-23T14:27:52.031Z,99615.91
2023-01-23T14:30:48.493Z,99620.28
2023-01-23T14:33:18.055Z,99626.03
2023-01-23T14:35:46.793Z,99631.28
2023-01-23T14:38:29.464Z,99624.47
2023-01-23T14:40:59.031Z,99630.44
2023-01-23T14:43:29.667Z,99624.69
2023-01-23T14:46:05.713Z,99634.84
2023-01-23T14:48:38.972Z,99632.31
2023-01-23T14:51:18.962Z,99636.88
2023-01-23T14:54:00.421Z,99633.88
2023-01-23T14:56:37.053Z,99638.16
2023-01-23T14:59:08.205Z,99643.25
2023-01-23T15:01:36.175Z,99644.84
2023-01-23T15:04:06.738Z,99643.03
2023-01-23T15:06:36.275Z,99638.41
2023-01-23T15:09:17.790Z,99637.34
2023-01-23T15:11:45.921Z,99641.03
2023-01-23T15:14:32.728Z,99644.00
2023-01-23T15:17:06.318Z,99644.09
2023-01-23T15:19:36.458Z,99634.25
2023-01-23T15:22:27.349Z,99631.97
2023-01-23T15:24:55.982Z,99639.22
2023-01-23T15:27:34.733Z,99643.00
2023-01-23T15:30:33.640Z,99648.88
2023-01-23T15:33:07.370Z,99645.50
2023-01-23T15:35:37.154Z,99645.13
2023-01-23T15:38:08.532Z,99643.22
2023-01-23T15:40:38.810Z,99649.31
2023-01-23T15:43:18.689Z,99658.84
2023-01-23T15:45:46.689Z,99651.22
2023-01-23T15:48:14.276Z,99655.72
2023-01-23T15:50:41.883Z,99663.47
2023-01-23T15:53:14.365Z,99661.47
2023-01-23T15:55:41.869Z,99668.25
2023-01-23T15:58:15.126Z,99661.34
2023-01-23T16:00:42.699Z,99668.88
2023-01-23T16:03:11.020Z,99660.72
2023-01-23T16:05:38.540Z,99665.03
2023-01-23T16:08:12.504Z,99660.94
2023-01-23T16:10:40.443Z,99670.97
2023-01-23T16:13:13.842Z,99674.34
2023-01-23T16:15:41.793Z,99675.53
2023-01-23T16:18:10.147Z,99681.59
2023-01-23T16:20:44.127Z,99680.75
2023-01-23T16:23:15.175Z,99686.59
2023-01-23T16:25:45.762Z,99695.81
2023-01-23T16:28:16.080Z,99691.00
2023-01-23T16:30:44.280Z,99687.88
2023-01-23T16:33:13.847Z,99690.16
2023-01-23T16:35:42.113Z,99686.94
2023-01-23T16:38:24.242Z,99689.56
2023-01-23T16:40:53.563Z,99695.75
2023-01-23T16:43:22.673Z,99692.78
2023-01-23T16:45:53.693Z,99699.09
2023-01-23T16:48:27.204Z,99705.28
2023-01-23T16:51:08.346Z,99710.72
2023-01-23T16:53:39.009Z,99709.59
2023-01-23T16:56:07.537Z,99701.00
2023-01-23T16:58:39.876Z,99704.44
2023-01-23T17:01:17.422Z,99702.25
2023-01-23T17:03:45.528Z,99703.69
2023-01-23T17:06:16.137Z,99709.34
2023-01-23T17:08:44.019Z,99709.06
2023-01-23T17:11:21.049Z,99708.50
2023-01-23T17:13:49.669Z,99713.34
2023-01-23T17:16:26.749Z,99717.31
2023-01-23T17:18:59.078Z,99732.44
2023-01-23T17:21:33.650Z,99717.25
2023-01-23T17:24:01.264Z,99721.22
2023-01-23T17:26:28.888Z,99726.91
2023-01-23T17:28:56.591Z,99719.78
2023-01-23T17:31:28.144Z,99725.09
2023-01-23T17:33:55.989Z,99725.31
2023-01-23T17:36:26.379Z,99717.59
2023-01-23T17:38:56.167Z,99731.44
2023-01-23T17:41:24.111Z,99730.03
2023-01-23T17:43:52.812Z,99733.53
2023-01-23T17:46:26.990Z,99741.03
2023-01-23T17:48:56.286Z,99741.69
2023-01-23T17:51:25.514Z,99745.44
2023-01-23T17:53:53.799Z,99740.72
2023-01-23T17:56:21.303Z,99738.94
2023-01-23T17:58:48.816Z,99744.56
2023-01-23T18:01:26.130Z,99739.91
2023-01-23T18:03:54.047Z,99741.78
2023-01-23T18:06:21.675Z,99752.66
2023-01-23T18:08:49.251Z,99742.50
2023-01-23T18:11:19.597Z,99737.97
2023-01-23T18:14:21.747Z,99743.44
2023-01-23T18:16:50.344Z,99741.03
2023-01-23T18:19:20.719Z,99741.25
2023-01-23T18:21:51.312Z,99735.41
2023-01-23T18:24:28.540Z,99732.56
2023-01-23T18:27:14.577Z,99731.66
2023-01-23T18:30:07.265Z,99733.31
2023-01-23T18:33:05.810Z,99747.16
2023-01-23T18:36:26.393Z,99739.81
2023-01-23T18:39:03.335Z,99746.94
2023-01-23T18:41:31.154Z,99755.53
2023-01-23T18:44:12.808Z,99749.47
2023-01-23T18:46:41.427Z,99747.03
2023-01-23T18:49:12.304Z,99741.59
2023-01-23T18:52:12.447Z,99743.34
2023-01-23T18:55:01.195Z,99748.91
2023-01-23T18:57:40.880Z,99752.25
2023-01-23T19:00:14.115Z,99749.63
2023-01-23T19:02:50.537Z,99750.69
2023-01-23T19:05:26.097Z,99750.47
2023-01-23T19:07:53.944Z,99747.16
2023-01-23T19:10:29.038Z,99752.38
2023-01-23T19:13:10.207Z,99740.00
2023-01-23T19:15:57.404Z,99742.97
2023-01-23T19:18:54.363Z,99741.91
2023-01-23T19:21:28.370Z,99746.72
2023-01-23T19:24:06.907Z,99746.28
2023-01-23T19:26:40.088Z,99747.38
2023-01-23T19:29:21.091Z,99752.47
2023-01-23T19:32:06.497Z,99752.16
2023-01-23T19:34:35.013Z,99757.63
2023-01-23T19:37:03.184Z,99757.63
2023-01-23T19:39:30.966Z,99759.59
2023-01-23T19:41:59.338Z,99760.91
2023-01-23T19:44:30.108Z,99762.56
2023-01-23T19:46:57.781Z,99762.13
2023-01-23T19:49:25.459Z,99762.34
2023-01-23T19:51:53.220Z,99763.09
2023-01-23T19:54:23.013Z,99764.13
2023-01-23T19:56:52.203Z,99767.38
2023-01-23T19:59:19.779Z,99769.25
2023-01-23T20:01:50.715Z,99765.47
2023-01-23T20:04:20.919Z,99765.47
2023-01-23T20:06:51.936Z,99770.38
2023-01-23T20:09:20.127Z,99769.75
2023-01-23T20:11:48.123Z,99779.81
2023-01-23T20:14:15.947Z,99780.34
2023-01-23T20:16:43.811Z,99780.34
2023-01-23T20:19:14.502Z,99778.91
2023-01-23T20:21:42.690Z,99779.50
2023-01-23T20:24:10.465Z,99777.00
2023-01-23T20:26:38.975Z,99784.44
2023-01-23T20:29:08.173Z,99773.34
2023-01-23T20:31:36.059Z,99783.81
2023-01-23T20:34:04.005Z,99774.69
2023-01-23T20:36:31.623Z,99774.81
2023-01-23T20:38:59.166Z,99773.13
2023-01-23T20:41:26.680Z,99774.03
2023-01-23T20:43:54.176Z,99771.66
2023-01-23T20:46:21.949Z,99772.69
2023-01-23T20:48:49.412Z,99776.19
2023-01-23T20:51:17.408Z,99765.56
2023-01-23T20:53:45.881Z,99769.53
2023-01-23T20:56:16.032Z,99776.97
2023-01-23T20:59:15.836Z,99770.50
2023-01-23T21:02:02.907Z,99771.88
2023-01-23T21:04:33.829Z,99762.13
2023-01-23T21:07:02.267Z,99765.91
2023-01-23T21:09:30.382Z,99770.59
2023-01-23T21:11:58.155Z,99764.31
2023-01-23T21:14:25.825Z,99772.78
2023-01-23T21:16:53.561Z,99761.91
2023-01-23T21:19:21.440Z,99770.72
2023-01-23T21:21:49.053Z,99768.31
2023-01-23T21:24:16.875Z,99772.38
2023-01-23T21:26:44.701Z,99761.16
2023-01-23T21:29:12.202Z,99765.69
2023-01-23T21:31:40.451Z,99769.47
2023-01-23T21:34:11.525Z,99767.69
2023-01-23T21:36:41.342Z,99767.69
2023-01-23T21:39:10.620Z,99764.34
2023-01-23T21:41:38.054Z,99775.66
2023-01-23T21:44:05.851Z,99773.78
2023-01-23T21:46:33.398Z,99775.44
2023-01-23T21:49:00.913Z,99770.41
2023-01-23T21:51:28.579Z,99766.97
2023-01-23T21:53:56.263Z,99770.94
2023-01-23T21:56:24.780Z,99771.16
2023-01-23T21:58:54.122Z,99775.22
2023-01-23T22:01:44.839Z,99772.81
2023-01-23T22:04:22.150Z,99773.56
2023-01-23T22:06:58.708Z,99768.94
2023-01-23T22:09:27.371Z,99771.16
2023-01-23T22:11:55.957Z,99768.53
2023-01-23T22:14:24.224Z,99766.84
2023-01-23T22:16:52.077Z,99769.97
2023-01-23T22:19:24.950Z,99769.25
2023-01-23T22:21:57.365Z,99773.56
2023-01-23T22:24:25.179Z,99767.59
2023-01-23T22:26:52.742Z,99766.41
2023-01-23T22:29:20.360Z,99775.44
2023-01-23T22:31:48.065Z,99781.59
2023-01-23T22:34:15.699Z,99775.84
2023-01-23T22:36:43.215Z,99768.09
2023-01-23T22:39:13.991Z,99771.66
2023-01-23T22:41:44.000Z,99775.00
2023-01-23T22:44:12.715Z,99767.16
2023-01-23T22:46:40.286Z,99771.72
2023-01-23T22:49:08.033Z,99764.31
2023-01-23T22:51:35.590Z,99773.81
2023-01-23T22:54:06.309Z,99776.97
2023-01-23T22:56:33.928Z,99776.22
2023-01-23T22:59:01.485Z,99780.63
2023-01-23T23:01:30.263Z,99774.78
2023-01-23T23:03:58.857Z,99781.75
2023-01-23T23:06:26.987Z,99777.69
2023-01-23T23:08:55.271Z,99778.22
2023-01-23T23:11:25.580Z,99773.00
2023-01-23T23:13:54.094Z,99769.41
2023-01-23T23:16:24.943Z,99770.06
2023-01-23T23:18:55.062Z,99773.72
2023-01-23T23:21:25.325Z,99782.31
2023-01-23T23:23:57.515Z,99774.66
2023-01-23T23:26:26.770Z,99770.16
2023-01-23T23:28:55.178Z,99767.44
2023-01-23T23:31:24.656Z,99769.94
2023-01-23T23:33:52.726Z,99763.66
2023-01-23T23:36:20.818Z,99767.31
2023-01-23T23:38:48.317Z,99763.03
2023-01-23T23:41:17.147Z,99767.53
2023-01-23T23:43:44.938Z,99764.09
2023-01-23T23:46:13.454Z,99765.97
2023-01-23T23:48:41.991Z,99763.13
2023-01-23T23:51:12.662Z,99762.50
2023-01-23T23:53:41.433Z,99772.03
2023-01-23T23:56:10.329Z,99766.81
2023-01-23T23:58:38.885Z,99773.81
